sensor_id;sensor_type;location;lat;lon;timestamp;temperature;humidity
69628;DHT22;56850;51.984;5.088;2024-02-26T00:01:51;12.50;61.90
69628;DHT22;56850;51.984;5.088;2024-02-26T00:04:18;12.50;61.80
69628;DHT22;56850;51.984;5.088;2024-02-26T00:06:45;12.50;61.80
69628;DHT22;56850;51.984;5.088;2024-02-26T00:09:12;12.50;61.90
69628;DHT22;56850;51.984;5.088;2024-02-26T00:11:39;12.50;61.80
69628;DHT22;56850;51.984;5.088;2024-02-26T00:14:06;12.50;61.90
69628;DHT22;56850;51.984;5.088;2024-02-26T00:16:33;12.40;61.80
69628;DHT22;56850;51.984;5.088;2024-02-26T00:19:00;12.40;61.80
69628;DHT22;56850;51.984;5.088;2024-02-26T00:21:28;12.40;61.80
69628;DHT22;56850;51.984;5.088;2024-02-26T00:23:55;12.40;61.80
69628;DHT22;56850;51.984;5.088;2024-02-26T00:26:22;12.40;61.70
69628;DHT22;56850;51.984;5.088;2024-02-26T00:28:51;12.40;61.80
69628;DHT22;56850;51.984;5.088;2024-02-26T00:31:18;12.40;61.80
69628;DHT22;56850;51.984;5.088;2024-02-26T00:33:45;12.40;61.80
69628;DHT22;56850;51.984;5.088;2024-02-26T00:36:12;12.40;61.80
69628;DHT22;56850;51.984;5.088;2024-02-26T00:38:39;12.40;61.90
69628;DHT22;56850;51.984;5.088;2024-02-26T00:41:07;12.40;61.80
69628;DHT22;56850;51.984;5.088;2024-02-26T00:43:34;12.40;61.90
69628;DHT22;56850;51.984;5.088;2024-02-26T00:46:01;12.40;61.80
69628;DHT22;56850;51.984;5.088;2024-02-26T00:48:28;12.40;61.80
69628;DHT22;56850;51.984;5.088;2024-02-26T00:50:56;12.40;61.80
69628;DHT22;56850;51.984;5.088;2024-02-26T00:53:23;12.40;61.90
69628;DHT22;56850;51.984;5.088;2024-02-26T00:55:51;12.30;61.80
69628;DHT22;56850;51.984;5.088;2024-02-26T00:58:18;12.40;61.80
69628;DHT22;56850;51.984;5.088;2024-02-26T01:00:45;12.40;61.90
69628;DHT22;56850;51.984;5.088;2024-02-26T01:03:12;12.40;61.70
69628;DHT22;56850;51.984;5.088;2024-02-26T01:05:39;12.30;61.80
69628;DHT22;56850;51.984;5.088;2024-02-26T01:08:06;12.30;61.90
69628;DHT22;56850;51.984;5.088;2024-02-26T01:10:34;12.30;61.70
69628;DHT22;56850;51.984;5.088;2024-02-26T01:13:01;12.30;61.80
69628;DHT22;56850;51.984;5.088;2024-02-26T01:15:28;12.30;61.80
69628;DHT22;56850;51.984;5.088;2024-02-26T01:17:55;12.30;61.80
69628;DHT22;56850;51.984;5.088;2024-02-26T01:20:22;12.30;61.80
69628;DHT22;56850;51.984;5.088;2024-02-26T01:22:49;12.30;61.90
69628;DHT22;56850;51.984;5.088;2024-02-26T01:25:16;12.30;61.80
69628;DHT22;56850;51.984;5.088;2024-02-26T01:27:43;12.30;61.80
69628;DHT22;56850;51.984;5.088;2024-02-26T01:30:10;12.30;61.80
69628;DHT22;56850;51.984;5.088;2024-02-26T01:32:38;12.30;61.90
69628;DHT22;56850;51.984;5.088;2024-02-26T01:35:05;12.30;61.80
69628;DHT22;56850;51.984;5.088;2024-02-26T01:37:36;12.30;61.70
69628;DHT22;56850;51.984;5.088;2024-02-26T01:40:05;12.30;61.80
69628;DHT22;56850;51.984;5.088;2024-02-26T01:42:33;12.30;61.80
69628;DHT22;56850;51.984;5.088;2024-02-26T01:45:00;12.30;61.80
69628;DHT22;56850;51.984;5.088;2024-02-26T01:47:28;12.30;61.80
69628;DHT22;56850;51.984;5.088;2024-02-26T01:49:56;12.30;61.80
69628;DHT22;56850;51.984;5.088;2024-02-26T01:52:23;12.30;61.90
69628;DHT22;56850;51.984;5.088;2024-02-26T01:54:50;12.30;61.80
69628;DHT22;56850;51.984;5.088;2024-02-26T01:57:17;12.30;61.70
69628;DHT22;56850;51.984;5.088;2024-02-26T01:59:45;12.30;61.80
69628;DHT22;56850;51.984;5.088;2024-02-26T02:02:12;12.30;61.80
69628;DHT22;56850;51.984;5.088;2024-02-26T02:04:41;12.30;61.70
69628;DHT22;56850;51.984;5.088;2024-02-26T02:07:08;12.20;61.80
69628;DHT22;56850;51.984;5.088;2024-02-26T02:09:36;12.30;61.80
69628;DHT22;56850;51.984;5.088;2024-02-26T02:12:03;12.30;61.70
69628;DHT22;56850;51.984;5.088;2024-02-26T02:14:30;12.20;61.70
69628;DHT22;56850;51.984;5.088;2024-02-26T02:16:57;12.20;61.80
69628;DHT22;56850;51.984;5.088;2024-02-26T02:19:24;12.30;61.70
69628;DHT22;56850;51.984;5.088;2024-02-26T02:21:51;12.30;61.80
69628;DHT22;56850;51.984;5.088;2024-02-26T02:24:18;12.30;61.80
69628;DHT22;56850;51.984;5.088;2024-02-26T02:26:45;12.30;61.80
69628;DHT22;56850;51.984;5.088;2024-02-26T02:29:13;12.30;61.80
69628;DHT22;56850;51.984;5.088;2024-02-26T02:31:40;12.30;61.80
69628;DHT22;56850;51.984;5.088;2024-02-26T02:34:09;12.30;61.80
69628;DHT22;56850;51.984;5.088;2024-02-26T02:36:48;12.30;61.80
69628;DHT22;56850;51.984;5.088;2024-02-26T02:39:15;12.30;61.80
69628;DHT22;56850;51.984;5.088;2024-02-26T02:41:42;12.30;61.70
69628;DHT22;56850;51.984;5.088;2024-02-26T02:44:09;12.30;61.70
69628;DHT22;56850;51.984;5.088;2024-02-26T02:46:36;12.30;61.80
69628;DHT22;56850;51.984;5.088;2024-02-26T02:49:03;12.30;61.70
69628;DHT22;56850;51.984;5.088;2024-02-26T02:51:30;12.30;61.70
69628;DHT22;56850;51.984;5.088;2024-02-26T02:54:00;12.30;61.70
69628;DHT22;56850;51.984;5.088;2024-02-26T02:56:27;12.20;61.80
69628;DHT22;56850;51.984;5.088;2024-02-26T02:58:54;12.30;61.70
69628;DHT22;56850;51.984;5.088;2024-02-26T03:01:21;12.30;61.70
69628;DHT22;56850;51.984;5.088;2024-02-26T03:03:48;12.20;61.60
69628;DHT22;56850;51.984;5.088;2024-02-26T03:06:14;12.20;61.70
69628;DHT22;56850;51.984;5.088;2024-02-26T03:08:41;12.20;61.70
69628;DHT22;56850;51.984;5.088;2024-02-26T03:11:13;12.30;61.70
69628;DHT22;56850;51.984;5.088;2024-02-26T03:13:41;12.20;61.70
69628;DHT22;56850;51.984;5.088;2024-02-26T03:16:08;12.20;61.70
69628;DHT22;56850;51.984;5.088;2024-02-26T03:18:35;12.20;61.70
69628;DHT22;56850;51.984;5.088;2024-02-26T03:21:02;12.20;61.70
69628;DHT22;56850;51.984;5.088;2024-02-26T03:23:29;12.20;61.60
69628;DHT22;56850;51.984;5.088;2024-02-26T03:25:58;12.20;61.60
69628;DHT22;56850;51.984;5.088;2024-02-26T03:28:28;12.20;61.70
69628;DHT22;56850;51.984;5.088;2024-02-26T03:30:55;12.20;61.60
69628;DHT22;56850;51.984;5.088;2024-02-26T03:33:21;12.20;61.70
69628;DHT22;56850;51.984;5.088;2024-02-26T03:35:48;12.20;61.70
69628;DHT22;56850;51.984;5.088;2024-02-26T03:38:15;12.20;61.70
69628;DHT22;56850;51.984;5.088;2024-02-26T03:40:42;12.20;61.60
69628;DHT22;56850;51.984;5.088;2024-02-26T03:43:09;12.20;61.70
69628;DHT22;56850;51.984;5.088;2024-02-26T03:45:36;12.20;61.70
69628;DHT22;56850;51.984;5.088;2024-02-26T03:48:03;12.20;61.70
69628;DHT22;56850;51.984;5.088;2024-02-26T03:50:30;12.20;61.70
69628;DHT22;56850;51.984;5.088;2024-02-26T03:52:57;12.20;61.60
69628;DHT22;56850;51.984;5.088;2024-02-26T03:55:24;12.20;61.70
69628;DHT22;56850;51.984;5.088;2024-02-26T03:57:52;12.10;61.70
69628;DHT22;56850;51.984;5.088;2024-02-26T04:00:19;12.20;61.70
69628;DHT22;56850;51.984;5.088;2024-02-26T04:02:49;12.10;61.70
69628;DHT22;56850;51.984;5.088;2024-02-26T04:05:16;12.20;61.70
69628;DHT22;56850;51.984;5.088;2024-02-26T04:07:43;12.10;61.60
69628;DHT22;56850;51.984;5.088;2024-02-26T04:10:10;12.20;61.60
69628;DHT22;56850;51.984;5.088;2024-02-26T04:12:41;12.10;61.60
69628;DHT22;56850;51.984;5.088;2024-02-26T04:15:09;12.20;61.50
69628;DHT22;56850;51.984;5.088;2024-02-26T04:17:37;12.20;61.60
69628;DHT22;56850;51.984;5.088;2024-02-26T04:20:04;12.10;61.60
69628;DHT22;56850;51.984;5.088;2024-02-26T04:22:34;12.10;61.60
69628;DHT22;56850;51.984;5.088;2024-02-26T04:25:01;12.10;61.60
69628;DHT22;56850;51.984;5.088;2024-02-26T04:27:30;12.20;61.60
69628;DHT22;56850;51.984;5.088;2024-02-26T04:29:57;12.10;61.60
69628;DHT22;56850;51.984;5.088;2024-02-26T04:32:23;12.10;61.60
69628;DHT22;56850;51.984;5.088;2024-02-26T04:34:50;12.10;61.60
69628;DHT22;56850;51.984;5.088;2024-02-26T04:37:17;12.10;61.70
69628;DHT22;56850;51.984;5.088;2024-02-26T04:39:44;12.10;61.60
69628;DHT22;56850;51.984;5.088;2024-02-26T04:42:16;12.10;61.60
69628;DHT22;56850;51.984;5.088;2024-02-26T04:44:43;12.10;61.60
69628;DHT22;56850;51.984;5.088;2024-02-26T04:47:10;12.10;61.60
69628;DHT22;56850;51.984;5.088;2024-02-26T04:49:37;12.10;61.50
69628;DHT22;56850;51.984;5.088;2024-02-26T04:52:05;12.10;61.50
69628;DHT22;56850;51.984;5.088;2024-02-26T04:54:31;12.10;61.60
69628;DHT22;56850;51.984;5.088;2024-02-26T04:56:58;12.10;61.60
69628;DHT22;56850;51.984;5.088;2024-02-26T04:59:25;12.10;61.60
69628;DHT22;56850;51.984;5.088;2024-02-26T05:01:52;12.10;61.60
69628;DHT22;56850;51.984;5.088;2024-02-26T05:04:19;12.10;61.60
69628;DHT22;56850;51.984;5.088;2024-02-26T05:06:46;12.10;61.60
69628;DHT22;56850;51.984;5.088;2024-02-26T05:09:13;12.10;61.60
69628;DHT22;56850;51.984;5.088;2024-02-26T05:11:40;12.10;61.60
69628;DHT22;56850;51.984;5.088;2024-02-26T05:14:09;12.10;61.50
69628;DHT22;56850;51.984;5.088;2024-02-26T05:16:36;12.10;61.60
69628;DHT22;56850;51.984;5.088;2024-02-26T05:19:03;12.10;61.60
69628;DHT22;56850;51.984;5.088;2024-02-26T05:21:30;12.10;61.60
69628;DHT22;56850;51.984;5.088;2024-02-26T05:23:57;12.10;61.50
69628;DHT22;56850;51.984;5.088;2024-02-26T05:26:24;12.10;61.60
69628;DHT22;56850;51.984;5.088;2024-02-26T05:28:51;12.10;61.60
69628;DHT22;56850;51.984;5.088;2024-02-26T05:31:18;12.10;61.50
69628;DHT22;56850;51.984;5.088;2024-02-26T05:33:45;12.10;61.50
69628;DHT22;56850;51.984;5.088;2024-02-26T05:36:18;12.10;61.50
69628;DHT22;56850;51.984;5.088;2024-02-26T05:38:46;12.00;61.60
69628;DHT22;56850;51.984;5.088;2024-02-26T05:41:17;12.10;61.50
69628;DHT22;56850;51.984;5.088;2024-02-26T05:43:50;12.10;61.60
69628;DHT22;56850;51.984;5.088;2024-02-26T05:46:20;12.00;61.50
69628;DHT22;56850;51.984;5.088;2024-02-26T05:48:53;12.10;61.60
69628;DHT22;56850;51.984;5.088;2024-02-26T05:51:20;12.10;61.60
69628;DHT22;56850;51.984;5.088;2024-02-26T05:53:47;12.10;61.50
69628;DHT22;56850;51.984;5.088;2024-02-26T05:56:21;12.10;61.50
69628;DHT22;56850;51.984;5.088;2024-02-26T05:58:49;12.10;61.50
69628;DHT22;56850;51.984;5.088;2024-02-26T06:01:16;12.10;61.50
69628;DHT22;56850;51.984;5.088;2024-02-26T06:03:44;12.00;61.50
69628;DHT22;56850;51.984;5.088;2024-02-26T06:06:11;12.00;61.50
69628;DHT22;56850;51.984;5.088;2024-02-26T06:08:39;12.00;61.50
69628;DHT22;56850;51.984;5.088;2024-02-26T06:11:06;12.00;61.60
69628;DHT22;56850;51.984;5.088;2024-02-26T06:13:35;12.00;61.60
69628;DHT22;56850;51.984;5.088;2024-02-26T06:16:02;12.00;61.60
69628;DHT22;56850;51.984;5.088;2024-02-26T06:18:29;12.00;61.50
69628;DHT22;56850;51.984;5.088;2024-02-26T06:20:57;12.00;61.40
69628;DHT22;56850;51.984;5.088;2024-02-26T06:23:24;12.00;61.60
69628;DHT22;56850;51.984;5.088;2024-02-26T06:25:51;12.00;61.50
69628;DHT22;56850;51.984;5.088;2024-02-26T06:28:18;12.00;61.50
69628;DHT22;56850;51.984;5.088;2024-02-26T06:30:45;12.00;61.60
69628;DHT22;56850;51.984;5.088;2024-02-26T06:33:13;12.00;61.60
69628;DHT22;56850;51.984;5.088;2024-02-26T06:35:41;11.90;61.60
69628;DHT22;56850;51.984;5.088;2024-02-26T06:38:08;11.90;61.60
69628;DHT22;56850;51.984;5.088;2024-02-26T06:40:36;11.90;61.60
69628;DHT22;56850;51.984;5.088;2024-02-26T06:43:03;11.90;61.70
69628;DHT22;56850;51.984;5.088;2024-02-26T06:45:30;12.00;61.60
69628;DHT22;56850;51.984;5.088;2024-02-26T06:47:57;12.00;61.50
69628;DHT22;56850;51.984;5.088;2024-02-26T06:50:24;12.00;61.60
69628;DHT22;56850;51.984;5.088;2024-02-26T06:52:51;12.00;61.60
69628;DHT22;56850;51.984;5.088;2024-02-26T06:55:18;12.00;61.60
69628;DHT22;56850;51.984;5.088;2024-02-26T06:57:45;12.00;61.60
69628;DHT22;56850;51.984;5.088;2024-02-26T07:00:12;12.00;61.50
69628;DHT22;56850;51.984;5.088;2024-02-26T07:02:42;12.00;61.50
69628;DHT22;56850;51.984;5.088;2024-02-26T07:05:10;12.00;61.60
69628;DHT22;56850;51.984;5.088;2024-02-26T07:07:37;12.00;61.60
69628;DHT22;56850;51.984;5.088;2024-02-26T07:10:04;12.00;61.50
69628;DHT22;56850;51.984;5.088;2024-02-26T07:12:32;12.00;61.60
69628;DHT22;56850;51.984;5.088;2024-02-26T07:15:00;12.00;61.60
69628;DHT22;56850;51.984;5.088;2024-02-26T07:17:27;12.00;61.60
69628;DHT22;56850;51.984;5.088;2024-02-26T07:19:54;12.00;61.60
69628;DHT22;56850;51.984;5.088;2024-02-26T07:22:22;12.00;61.60
69628;DHT22;56850;51.984;5.088;2024-02-26T07:24:48;12.00;61.60
69628;DHT22;56850;51.984;5.088;2024-02-26T07:27:15;12.00;61.60
69628;DHT22;56850;51.984;5.088;2024-02-26T07:29:44;12.00;61.60
69628;DHT22;56850;51.984;5.088;2024-02-26T07:32:11;12.00;61.70
69628;DHT22;56850;51.984;5.088;2024-02-26T07:34:39;12.00;61.70
69628;DHT22;56850;51.984;5.088;2024-02-26T07:37:08;12.00;61.70
69628;DHT22;56850;51.984;5.088;2024-02-26T07:39:35;12.00;61.70
69628;DHT22;56850;51.984;5.088;2024-02-26T07:42:04;12.00;61.70
69628;DHT22;56850;51.984;5.088;2024-02-26T07:44:31;12.00;61.60
69628;DHT22;56850;51.984;5.088;2024-02-26T07:46:58;12.00;61.70
69628;DHT22;56850;51.984;5.088;2024-02-26T07:49:25;12.00;61.70
69628;DHT22;56850;51.984;5.088;2024-02-26T07:51:52;12.00;61.70
69628;DHT22;56850;51.984;5.088;2024-02-26T07:54:18;12.00;61.70
69628;DHT22;56850;51.984;5.088;2024-02-26T07:56:46;12.00;61.70
69628;DHT22;56850;51.984;5.088;2024-02-26T07:59:14;12.00;61.70
69628;DHT22;56850;51.984;5.088;2024-02-26T08:01:42;12.00;61.80
69628;DHT22;56850;51.984;5.088;2024-02-26T08:04:12;12.00;61.80
69628;DHT22;56850;51.984;5.088;2024-02-26T08:06:38;12.00;61.80
69628;DHT22;56850;51.984;5.088;2024-02-26T08:09:05;12.00;61.70
69628;DHT22;56850;51.984;5.088;2024-02-26T08:11:33;12.00;61.70
69628;DHT22;56850;51.984;5.088;2024-02-26T08:14:00;12.00;61.70
69628;DHT22;56850;51.984;5.088;2024-02-26T08:16:27;11.90;61.80
69628;DHT22;56850;51.984;5.088;2024-02-26T08:18:55;12.00;61.80
69628;DHT22;56850;51.984;5.088;2024-02-26T08:21:22;12.00;61.80
69628;DHT22;56850;51.984;5.088;2024-02-26T08:23:49;12.00;61.70
69628;DHT22;56850;51.984;5.088;2024-02-26T08:26:16;12.00;61.80
69628;DHT22;56850;51.984;5.088;2024-02-26T08:28:43;12.00;61.80
69628;DHT22;56850;51.984;5.088;2024-02-26T08:31:11;12.00;61.70
69628;DHT22;56850;51.984;5.088;2024-02-26T08:33:37;12.00;61.70
69628;DHT22;56850;51.984;5.088;2024-02-26T08:36:05;12.00;61.80
69628;DHT22;56850;51.984;5.088;2024-02-26T08:38:32;12.00;61.80
69628;DHT22;56850;51.984;5.088;2024-02-26T08:41:02;12.00;61.80
69628;DHT22;56850;51.984;5.088;2024-02-26T08:43:31;12.00;61.80
69628;DHT22;56850;51.984;5.088;2024-02-26T08:45:58;12.00;61.70
69628;DHT22;56850;51.984;5.088;2024-02-26T08:48:25;11.90;61.80
69628;DHT22;56850;51.984;5.088;2024-02-26T08:50:52;11.90;61.80
69628;DHT22;56850;51.984;5.088;2024-02-26T08:53:20;11.90;61.80
69628;DHT22;56850;51.984;5.088;2024-02-26T08:55:57;12.00;61.80
69628;DHT22;56850;51.984;5.088;2024-02-26T08:58:24;11.90;61.80
69628;DHT22;56850;51.984;5.088;2024-02-26T09:00:51;11.90;61.80
69628;DHT22;56850;51.984;5.088;2024-02-26T09:03:21;11.90;61.90
69628;DHT22;56850;51.984;5.088;2024-02-26T09:05:48;11.90;61.90
69628;DHT22;56850;51.984;5.088;2024-02-26T09:08:15;11.90;61.80
69628;DHT22;56850;51.984;5.088;2024-02-26T09:10:42;12.00;61.80
69628;DHT22;56850;51.984;5.088;2024-02-26T09:13:09;11.90;61.90
69628;DHT22;56850;51.984;5.088;2024-02-26T09:15:35;11.90;61.80
69628;DHT22;56850;51.984;5.088;2024-02-26T09:18:02;11.90;61.90
69628;DHT22;56850;51.984;5.088;2024-02-26T09:20:30;11.90;61.90
69628;DHT22;56850;51.984;5.088;2024-02-26T09:22:57;11.90;61.90
69628;DHT22;56850;51.984;5.088;2024-02-26T09:25:24;11.90;61.90
69628;DHT22;56850;51.984;5.088;2024-02-26T09:27:51;11.90;61.90
69628;DHT22;56850;51.984;5.088;2024-02-26T09:30:18;11.90;61.90
69628;DHT22;56850;51.984;5.088;2024-02-26T09:32:46;11.90;61.90
69628;DHT22;56850;51.984;5.088;2024-02-26T09:35:14;11.90;61.90
69628;DHT22;56850;51.984;5.088;2024-02-26T09:37:42;11.90;61.90
69628;DHT22;56850;51.984;5.088;2024-02-26T09:40:11;11.90;61.90
69628;DHT22;56850;51.984;5.088;2024-02-26T09:42:44;11.90;62.00
69628;DHT22;56850;51.984;5.088;2024-02-26T09:45:18;11.90;62.00
69628;DHT22;56850;51.984;5.088;2024-02-26T09:47:48;12.00;62.00
69628;DHT22;56850;51.984;5.088;2024-02-26T09:50:17;11.90;61.90
69628;DHT22;56850;51.984;5.088;2024-02-26T09:52:44;11.90;62.00
69628;DHT22;56850;51.984;5.088;2024-02-26T09:55:11;12.00;62.00
69628;DHT22;56850;51.984;5.088;2024-02-26T09:57:45;11.90;62.00
69628;DHT22;56850;51.984;5.088;2024-02-26T10:00:18;11.90;62.00
69628;DHT22;56850;51.984;5.088;2024-02-26T10:02:48;11.90;62.00
69628;DHT22;56850;51.984;5.088;2024-02-26T10:05:18;11.90;62.00
69628;DHT22;56850;51.984;5.088;2024-02-26T10:07:46;11.90;62.00
69628;DHT22;56850;51.984;5.088;2024-02-26T10:10:14;11.90;62.10
69628;DHT22;56850;51.984;5.088;2024-02-26T10:12:41;11.90;62.10
69628;DHT22;56850;51.984;5.088;2024-02-26T10:15:08;11.90;62.10
69628;DHT22;56850;51.984;5.088;2024-02-26T10:17:36;11.90;62.00
69628;DHT22;56850;51.984;5.088;2024-02-26T10:20:18;12.00;62.10
69628;DHT22;56850;51.984;5.088;2024-02-26T10:22:51;12.00;62.10
69628;DHT22;56850;51.984;5.088;2024-02-26T10:25:19;11.90;62.00
69628;DHT22;56850;51.984;5.088;2024-02-26T10:27:47;11.90;62.10
69628;DHT22;56850;51.984;5.088;2024-02-26T10:30:19;11.90;62.10
69628;DHT22;56850;51.984;5.088;2024-02-26T10:32:49;11.90;62.10
69628;DHT22;56850;51.984;5.088;2024-02-26T10:35:18;11.90;62.10
69628;DHT22;56850;51.984;5.088;2024-02-26T10:37:47;11.90;62.10
69628;DHT22;56850;51.984;5.088;2024-02-26T10:40:15;11.90;62.10
69628;DHT22;56850;51.984;5.088;2024-02-26T10:42:43;12.00;62.10
69628;DHT22;56850;51.984;5.088;2024-02-26T10:45:11;12.00;62.10
69628;DHT22;56850;51.984;5.088;2024-02-26T10:47:40;12.00;62.10
69628;DHT22;56850;51.984;5.088;2024-02-26T10:50:09;12.00;62.10
69628;DHT22;56850;51.984;5.088;2024-02-26T10:52:36;12.00;62.10
69628;DHT22;56850;51.984;5.088;2024-02-26T10:55:05;12.00;62.10
69628;DHT22;56850;51.984;5.088;2024-02-26T10:57:39;12.00;62.10
69628;DHT22;56850;51.984;5.088;2024-02-26T11:00:08;12.00;62.10
69628;DHT22;56850;51.984;5.088;2024-02-26T11:02:38;12.00;62.10
69628;DHT22;56850;51.984;5.088;2024-02-26T11:05:07;12.00;62.10
69628;DHT22;56850;51.984;5.088;2024-02-26T11:07:35;12.00;62.20
69628;DHT22;56850;51.984;5.088;2024-02-26T11:10:05;12.00;62.10
69628;DHT22;56850;51.984;5.088;2024-02-26T11:12:35;12.00;62.10
69628;DHT22;56850;51.984;5.088;2024-02-26T11:15:04;12.00;62.10
69628;DHT22;56850;51.984;5.088;2024-02-26T11:17:32;12.00;62.20
69628;DHT22;56850;51.984;5.088;2024-02-26T11:20:01;12.00;62.10
69628;DHT22;56850;51.984;5.088;2024-02-26T11:22:31;12.00;62.20
69628;DHT22;56850;51.984;5.088;2024-02-26T11:24:59;12.00;62.20
69628;DHT22;56850;51.984;5.088;2024-02-26T11:27:31;12.00;62.20
69628;DHT22;56850;51.984;5.088;2024-02-26T11:30:02;12.00;62.20
69628;DHT22;56850;51.984;5.088;2024-02-26T11:32:32;12.00;62.20
69628;DHT22;56850;51.984;5.088;2024-02-26T11:35:02;12.00;62.20
69628;DHT22;56850;51.984;5.088;2024-02-26T11:37:32;12.00;62.20
69628;DHT22;56850;51.984;5.088;2024-02-26T11:40:04;12.00;62.20
69628;DHT22;56850;51.984;5.088;2024-02-26T11:42:31;12.00;62.20
69628;DHT22;56850;51.984;5.088;2024-02-26T11:44:59;12.00;62.30
69628;DHT22;56850;51.984;5.088;2024-02-26T11:47:28;12.00;62.20
69628;DHT22;56850;51.984;5.088;2024-02-26T11:49:55;12.00;62.20
69628;DHT22;56850;51.984;5.088;2024-02-26T11:52:22;12.00;62.20
69628;DHT22;56850;51.984;5.088;2024-02-26T11:54:53;12.00;62.20
69628;DHT22;56850;51.984;5.088;2024-02-26T11:59:52;12.00;62.20
69628;DHT22;56850;51.984;5.088;2024-02-26T12:05:16;12.00;62.30
69628;DHT22;56850;51.984;5.088;2024-02-26T12:07:48;12.00;62.30
69628;DHT22;56850;51.984;5.088;2024-02-26T12:13:15;12.00;62.30
69628;DHT22;56850;51.984;5.088;2024-02-26T12:18:19;12.00;62.20
69628;DHT22;56850;51.984;5.088;2024-02-26T12:21:01;12.00;62.30
69628;DHT22;56850;51.984;5.088;2024-02-26T12:23:30;12.00;62.30
69628;DHT22;56850;51.984;5.088;2024-02-26T12:26:00;12.00;62.30
69628;DHT22;56850;51.984;5.088;2024-02-26T12:28:30;12.00;62.30
69628;DHT22;56850;51.984;5.088;2024-02-26T12:30:57;12.00;62.30
69628;DHT22;56850;51.984;5.088;2024-02-26T12:33:26;12.00;62.30
69628;DHT22;56850;51.984;5.088;2024-02-26T12:35:54;12.00;62.30
69628;DHT22;56850;51.984;5.088;2024-02-26T12:38:21;12.00;62.30
69628;DHT22;56850;51.984;5.088;2024-02-26T12:40:48;12.00;62.40
69628;DHT22;56850;51.984;5.088;2024-02-26T12:43:16;12.00;62.40
69628;DHT22;56850;51.984;5.088;2024-02-26T12:45:43;12.00;62.40
69628;DHT22;56850;51.984;5.088;2024-02-26T12:48:14;12.10;62.40
69628;DHT22;56850;51.984;5.088;2024-02-26T12:50:45;12.10;62.40
69628;DHT22;56850;51.984;5.088;2024-02-26T12:53:14;12.10;62.40
69628;DHT22;56850;51.984;5.088;2024-02-26T12:55:42;12.10;62.30
69628;DHT22;56850;51.984;5.088;2024-02-26T12:58:09;12.10;62.30
69628;DHT22;56850;51.984;5.088;2024-02-26T13:00:36;12.10;62.40
69628;DHT22;56850;51.984;5.088;2024-02-26T13:03:04;12.10;62.40
69628;DHT22;56850;51.984;5.088;2024-02-26T13:05:31;12.10;62.30
69628;DHT22;56850;51.984;5.088;2024-02-26T13:07:59;12.10;62.30
69628;DHT22;56850;51.984;5.088;2024-02-26T13:10:26;12.10;62.30
69628;DHT22;56850;51.984;5.088;2024-02-26T13:12:53;12.10;62.30
69628;DHT22;56850;51.984;5.088;2024-02-26T13:15:21;12.10;62.30
69628;DHT22;56850;51.984;5.088;2024-02-26T13:17:49;12.10;62.40
69628;DHT22;56850;51.984;5.088;2024-02-26T13:20:27;12.10;62.30
69628;DHT22;56850;51.984;5.088;2024-02-26T13:23:02;12.10;62.30
69628;DHT22;56850;51.984;5.088;2024-02-26T13:25:34;12.10;62.30
69628;DHT22;56850;51.984;5.088;2024-02-26T13:28:15;12.10;62.20
69628;DHT22;56850;51.984;5.088;2024-02-26T13:30:56;12.10;62.30
69628;DHT22;56850;51.984;5.088;2024-02-26T13:33:25;12.10;62.30
69628;DHT22;56850;51.984;5.088;2024-02-26T13:35:53;12.10;62.30
69628;DHT22;56850;51.984;5.088;2024-02-26T13:38:20;12.10;62.30
69628;DHT22;56850;51.984;5.088;2024-02-26T13:40:47;12.10;62.20
69628;DHT22;56850;51.984;5.088;2024-02-26T13:43:14;12.10;62.20
69628;DHT22;56850;51.984;5.088;2024-02-26T13:45:41;12.10;62.30
69628;DHT22;56850;51.984;5.088;2024-02-26T13:48:09;12.10;62.30
69628;DHT22;56850;51.984;5.088;2024-02-26T13:50:42;12.10;62.20
69628;DHT22;56850;51.984;5.088;2024-02-26T13:53:13;12.10;62.20
69628;DHT22;56850;51.984;5.088;2024-02-26T13:55:41;12.20;62.30
69628;DHT22;56850;51.984;5.088;2024-02-26T13:58:14;12.20;62.20
69628;DHT22;56850;51.984;5.088;2024-02-26T14:00:41;12.20;62.20
69628;DHT22;56850;51.984;5.088;2024-02-26T14:03:10;12.20;62.30
69628;DHT22;56850;51.984;5.088;2024-02-26T14:05:37;12.20;62.30
69628;DHT22;56850;51.984;5.088;2024-02-26T14:08:04;12.20;62.20
69628;DHT22;56850;51.984;5.088;2024-02-26T14:10:32;12.20;62.20
69628;DHT22;56850;51.984;5.088;2024-02-26T14:13:02;12.20;62.20
69628;DHT22;56850;51.984;5.088;2024-02-26T14:15:29;12.20;62.30
69628;DHT22;56850;51.984;5.088;2024-02-26T14:17:56;12.20;62.20
69628;DHT22;56850;51.984;5.088;2024-02-26T14:20:24;12.20;62.20
69628;DHT22;56850;51.984;5.088;2024-02-26T14:22:52;12.20;62.20
69628;DHT22;56850;51.984;5.088;2024-02-26T14:25:23;12.20;62.20
69628;DHT22;56850;51.984;5.088;2024-02-26T14:27:54;12.20;62.20
69628;DHT22;56850;51.984;5.088;2024-02-26T14:30:21;12.20;62.20
69628;DHT22;56850;51.984;5.088;2024-02-26T14:32:48;12.20;62.20
69628;DHT22;56850;51.984;5.088;2024-02-26T14:35:15;12.20;62.20
69628;DHT22;56850;51.984;5.088;2024-02-26T14:37:44;12.30;62.20
69628;DHT22;56850;51.984;5.088;2024-02-26T14:40:16;12.30;62.20
69628;DHT22;56850;51.984;5.088;2024-02-26T14:42:44;12.30;62.20
69628;DHT22;56850;51.984;5.088;2024-02-26T14:45:12;12.30;62.20
69628;DHT22;56850;51.984;5.088;2024-02-26T14:47:39;12.30;62.20
69628;DHT22;56850;51.984;5.088;2024-02-26T14:50:06;12.30;62.20
69628;DHT22;56850;51.984;5.088;2024-02-26T14:52:33;12.30;62.20
69628;DHT22;56850;51.984;5.088;2024-02-26T14:55:00;12.30;62.20
69628;DHT22;56850;51.984;5.088;2024-02-26T14:57:28;12.30;62.20
69628;DHT22;56850;51.984;5.088;2024-02-26T14:59:54;12.30;62.20
69628;DHT22;56850;51.984;5.088;2024-02-26T15:02:22;12.30;62.20
69628;DHT22;56850;51.984;5.088;2024-02-26T15:04:48;12.30;62.20
69628;DHT22;56850;51.984;5.088;2024-02-26T15:07:16;12.30;62.20
69628;DHT22;56850;51.984;5.088;2024-02-26T15:09:43;12.30;62.10
69628;DHT22;56850;51.984;5.088;2024-02-26T15:12:10;12.30;62.00
69628;DHT22;56850;51.984;5.088;2024-02-26T15:14:37;12.30;62.10
69628;DHT22;56850;51.984;5.088;2024-02-26T15:17:05;12.30;62.10
69628;DHT22;56850;51.984;5.088;2024-02-26T15:19:40;12.30;62.00
69628;DHT22;56850;51.984;5.088;2024-02-26T15:22:07;12.30;62.10
69628;DHT22;56850;51.984;5.088;2024-02-26T15:24:34;12.30;62.10
69628;DHT22;56850;51.984;5.088;2024-02-26T15:27:01;12.30;62.00
69628;DHT22;56850;51.984;5.088;2024-02-26T15:29:28;12.30;62.10
69628;DHT22;56850;51.984;5.088;2024-02-26T15:31:56;12.30;62.00
69628;DHT22;56850;51.984;5.088;2024-02-26T15:34:22;12.30;62.10
69628;DHT22;56850;51.984;5.088;2024-02-26T15:36:49;12.30;62.00
69628;DHT22;56850;51.984;5.088;2024-02-26T15:39:16;12.30;62.00
69628;DHT22;56850;51.984;5.088;2024-02-26T15:41:43;12.30;62.00
69628;DHT22;56850;51.984;5.088;2024-02-26T15:44:11;12.30;61.90
69628;DHT22;56850;51.984;5.088;2024-02-26T15:46:41;12.30;61.90